EST,Max TemperatureF,Mean TemperatureF,Min TemperatureF,Max Dew PointF,MeanDew PointF,Min DewpointF,Max Humidity, Mean Humidity, Min Humidity, Max Sea Level PressureIn, Mean Sea Level PressureIn, Min Sea Level PressureIn, Max VisibilityMiles, Mean VisibilityMiles, Min VisibilityMiles, Max Wind SpeedMPH, Mean Wind SpeedMPH, Max Gust SpeedMPH,PrecipitationIn, CloudCover, Events, WindDirDegrees
2011-12-1,21,18,15,18,2,-22,100,59,14,,,,0,0,0,46,35,52,0.00,1,Fog,315
2011-12-2,19,16,12,16,13,5,100,86,54,,,,0,0,0,51,34,61,0.07,3,Fog-Snow,280
2011-12-3,26,19,12,12,-25,-42,100,17,4,,,,0,0,0,39,27,43,0.00,1,Fog,276
2011-12-4,35,32,28,34,5,-22,100,40,10,,,,0,0,0,62,47,68,0.00,3,Fog,241
2011-12-5,35,32,30,34,32,25,100,94,70,,,,0,0,0,59,49,68,0.00,7,Fog,260
2011-12-6,37,35,33,37,36,34,100,100,100,,,,0,0,0,56,45,69,0.62,,Fog-Rain,251
2011-12-7,33,30,26,34,31,27,100,100,100,,,,0,0,0,45,36,32,0.47,8,Fog-Rain-Snow,240
2011-12-8,26,16,5,27,10,5,100,100,100,,,,0,0,0,97,53,102,0.59,,Fog-Snow,282
2011-12-9,14,12,10,14,11,3,100,94,62,,,,5,0,0,66,53,70,0.04,8,Fog-Snow,259
2011-12-10,14,7,0,14,6,0,100,100,100,,,,0,0,0,59,50,68,0.12,,Fog-Snow,283
2011-12-11,19,8,0,14,3,-15,100,86,37,,,,15,1,0,58,47,64,0.04,2,Fog-Snow,284
2011-12-12,32,26,19,18,14,9,86,66,44,,,,,,,54,41,59,0.00,0,,271
2011-12-13,24,20,17,23,17,9,100,85,50,,,,0,0,0,38,25,40,0.00,4,Fog,302
2011-12-14,19,17,15,19,16,12,100,96,80,,,,0,0,0,36,25,,0.01,4,Fog-Snow,297
2011-12-15,32,24,17,32,26,18,100,100,100,,,,0,0,0,75,49,88,0.36,8,Fog-Rain-Snow,240
2011-12-16,30,20,10,30,17,10,100,100,100,,,,0,0,0,91,69,109,0.25,,Fog-Snow,282
2011-12-17,10,3,-4,10,-3,-22,100,81,42,,,,0,0,0,53,36,,0.06,4,Fog-Snow,291
2011-12-18,6,0,-7,-17,-28,-42,55,27,16,,,,,,,30,16,,0.00,1,,320
2011-12-19,23,13,3,23,11,-17,100,89,36,,,,20,1,0,71,50,82,0.07,5,Fog-Snow,264
2011-12-20,14,5,-4,14,-14,-40,100,53,9,,,,0,0,0,84,60,91,0.11,1,Fog-Snow,299
2011-12-21,33,22,10,34,24,-15,100,94,29,,,,0,0,0,66,51,70,0.70,1,Fog-Rain-Snow,252
2011-12-22,32,24,15,32,16,-17,100,86,18,,,,0,0,0,71,60,82,0.00,6,Fog-Snow,283
2011-12-23,21,10,-2,21,11,-24,100,94,35,,,,0,0,0,71,36,85,0.60,3,Fog-Snow,267
2011-12-24,5,2,0,-20,-27,-45,39,25,9,,,,,,,52,34,44,0.00,3,Snow,303
2011-12-25,14,6,-2,14,1,-29,100,85,23,,,,0,0,0,56,40,63,0.15,5,Fog-Snow,253
2011-12-26,21,12,3,14,2,-20,100,72,15,,,,0,0,0,70,48,76,0.08,2,Fog-Snow,286
2011-12-27,30,26,23,30,8,-11,100,54,20,,,,0,0,0,77,48,89,0.00,7,Fog-Rain-Snow,227
2011-12-28,32,12,-9,32,12,-9,100,100,100,,,,0,0,0,93,57,97,0.34,,Fog-Rain-Snow,258
2011-12-29,-2,-9,-14,-9,-19,-42,100,65,23,,,,0,0,0,102,82,115,0.00,1,Fog-Snow,285
2011-12-30,21,11,1,21,13,-20,100,90,33,,,,0,0,0,54,43,48,0.22,1,Fog-Snow,245
2011-12-31,28,26,23,28,25,16,100,99,74,,,,0,0,0,50,38,58,0.06,7,Fog-Snow,230